Time;durP1;ratioP1;P1;durP2;ratioP2;P2;SDS_P1;SDS_P2;PMS_P1;PMS_P2;Temp;Humidity;BMP_temperature;BMP_pressure;BME280_temperature;BME280_humidity;BME280_pressure;Samples;Min_cycle;Max_cycle;Signal;HPM_P1;HPM_P2
2024/01/18 00:01:38;;;;;;;1.13;1.13;;;;;;;1.10;95.17;94651.97;4994142;28;20065;-72
2024/01/18 00:04:06;;;;;;;1.52;1.52;;;;;;;1.13;95.00;94649.94;5004761;28;20554;-71
2024/01/18 00:06:34;;;;;;;0.40;0.40;;;;;;;1.10;95.22;94644.09;4988556;28;20417;-71
2024/01/18 00:09:02;;;;;;;0.85;0.85;;;;;;;1.03;94.73;94642.50;4993206;28;20050;-71
2024/01/18 00:11:30;;;;;;;0.90;0.90;;;;;;;0.98;95.21;94653.63;4989924;28;20527;-71
2024/01/18 00:13:59;;;;;;;0.88;0.88;;;;;;;0.98;95.61;94664.13;4991710;28;20034;-71
2024/01/18 00:16:26;;;;;;;0.85;0.85;;;;;;;0.97;95.35;94672.22;5003911;28;20571;-71
2024/01/18 00:18:55;;;;;;;0.95;0.95;;;;;;;0.95;95.50;94685.53;4998260;28;20492;-71
2024/01/18 00:21:23;;;;;;;1.00;1.00;;;;;;;0.99;95.61;94680.69;5002748;28;20054;-71
2024/01/18 00:23:51;;;;;;;0.20;0.20;;;;;;;1.07;95.82;94680.44;4981406;28;20038;-70
2024/01/18 00:26:18;;;;;;;0.82;0.82;;;;;;;1.09;94.54;94666.09;4992140;28;20062;-71
2024/01/18 00:28:46;;;;;;;0.20;0.20;;;;;;;1.01;93.61;94670.78;4995254;28;20053;-71
2024/01/18 00:31:15;;;;;;;1.15;1.15;;;;;;;1.07;93.70;94683.06;4993474;28;20051;-71
2024/01/18 00:33:42;;;;;;;1.58;1.58;;;;;;;1.05;92.47;94690.34;4992262;28;20068;-70
2024/01/18 00:36:10;;;;;;;1.17;1.17;;;;;;;0.91;92.54;94697.47;4993737;28;20057;-70
2024/01/18 00:38:38;;;;;;;0.82;0.82;;;;;;;0.96;92.86;94712.59;4984824;28;20053;-70
2024/01/18 00:41:06;;;;;;;1.05;1.05;;;;;;;0.91;92.69;94723.72;5000307;28;20528;-70
2024/01/18 00:43:33;;;;;;;;;;;;;;;0.90;92.66;94722.13;4983450;28;20054;-70
2024/01/18 00:46:03;;;;;;;0.30;0.30;;;;;;;0.90;92.18;94726.56;4988984;28;20389;-70
2024/01/18 00:48:32;;;;;;;0.88;0.88;;;;;;;0.81;92.47;94744.34;4977975;28;20043;-72
2024/01/18 00:51:00;;;;;;;1.13;1.13;;;;;;;0.82;93.05;94745.16;4987237;28;20119;-71
2024/01/18 00:53:27;;;;;;;1.05;1.05;;;;;;;0.77;92.90;94756.25;4985536;28;20046;-71
2024/01/18 00:55:55;;;;;;;0.98;0.98;;;;;;;0.75;92.71;94750.41;4996187;28;20129;-71
2024/01/18 00:58:23;;;;;;;1.05;1.05;;;;;;;0.74;92.57;94756.66;4985332;28;20055;-70
2024/01/18 01:00:50;;;;;;;1.00;1.00;;;;;;;0.75;92.35;94763.53;4998170;28;20101;-71
2024/01/18 01:03:18;;;;;;;1.15;1.15;;;;;;;0.70;92.29;94768.59;4997867;28;20050;-71
2024/01/18 01:05:47;;;;;;;0.98;0.98;;;;;;;0.65;92.20;94776.25;4997658;28;20038;-71
2024/01/18 01:08:16;;;;;;;1.40;1.40;;;;;;;0.58;91.97;94776.28;4988358;28;20186;-71
2024/01/18 01:10:43;;;;;;;1.15;1.15;;;;;;;0.59;92.32;94784.94;5000097;28;20052;-71
2024/01/18 01:13:12;;;;;;;0.40;0.40;;;;;;;0.56;92.58;94786.16;4991103;28;20414;-71
2024/01/18 01:15:40;;;;;;;1.05;1.05;;;;;;;0.61;92.22;94796.06;5002935;28;20070;-70
2024/01/18 01:18:10;;;;;;;0.45;0.45;;;;;;;0.52;92.34;94784.94;4990662;28;20692;-70
2024/01/18 01:20:38;;;;;;;1.23;1.23;;;;;;;0.53;92.68;94796.25;4982567;28;20037;-70
2024/01/18 01:23:07;;;;;;;0.80;0.80;;;;;;;0.61;92.54;94785.56;4985214;28;20125;-70
2024/01/18 01:25:34;;;;;;;1.20;1.20;;;;;;;0.57;92.46;94807.97;4991317;28;20524;-70
2024/01/18 01:28:02;;;;;;;1.00;1.00;;;;;;;0.55;92.20;94805.53;4999314;28;20042;-70
2024/01/18 01:30:29;;;;;;;1.20;1.20;;;;;;;0.56;92.33;94808.97;5004013;28;20038;-70
2024/01/18 01:32:57;;;;;;;0.40;0.40;;;;;;;0.54;92.60;94816.22;4988044;28;20476;-70
2024/01/18 01:35:24;;;;;;;1.42;1.42;;;;;;;0.52;92.54;94821.66;5001471;28;20564;-71
2024/01/18 01:37:52;;;;;;;1.00;1.00;;;;;;;0.56;91.37;94828.13;4992698;28;20049;-70
2024/01/18 01:40:21;;;;;;;1.10;1.10;;;;;;;0.58;91.14;94830.56;4995966;28;20101;-70
2024/01/18 01:42:49;;;;;;;1.10;1.10;;;;;;;0.49;91.18;94832.59;4991590;28;20063;-70
2024/01/18 01:45:16;;;;;;;1.15;1.15;;;;;;;0.43;91.45;94827.31;5009745;28;20046;-70
2024/01/18 01:47:44;;;;;;;1.13;1.13;;;;;;;0.32;91.26;94837.38;4992903;28;20560;-70
2024/01/18 01:50:12;;;;;;;0.95;0.95;;;;;;;0.39;91.36;94834.78;4982735;28;20578;-70
2024/01/18 01:52:40;;;;;;;1.05;1.05;;;;;;;0.33;90.90;94843.44;5003942;28;20050;-70
2024/01/18 01:55:08;;;;;;;0.50;0.50;;;;;;;0.29;91.29;94839.63;4989312;28;20446;-71
2024/01/18 01:57:42;;;;;;;;;;;;;;;0.27;91.71;94839.81;4983639;28;20069;-71
2024/01/18 02:00:12;;;;;;;1.00;1.00;;;;;;;0.28;91.76;94845.88;4967019;28;19922;-71
2024/01/18 02:02:41;;;;;;;0.30;0.30;;;;;;;0.30;91.08;94836.81;5001917;28;20409;-71
2024/01/18 02:05:09;;;;;;;0.90;0.90;;;;;;;0.30;90.78;94839.44;4999310;28;20046;-70
2024/01/18 02:07:37;;;;;;;0.28;0.28;;;;;;;0.27;90.65;94847.69;4983603;28;20046;-70
2024/01/18 02:10:06;;;;;;;0.47;0.47;;;;;;;0.27;90.91;94842.44;4990549;28;20421;-70
2024/01/18 02:12:35;;;;;;;0.85;0.85;;;;;;;0.24;91.31;94845.44;4990694;28;20052;-70
2024/01/18 02:15:05;;;;;;;0.88;0.88;;;;;;;0.12;91.58;94849.66;4996435;28;20043;-70
2024/01/18 02:17:33;;;;;;;0.90;0.90;;;;;;;0.09;91.65;94860.56;4997588;28;20053;-70
2024/01/18 02:20:01;;;;;;;0.20;0.20;;;;;;;0.15;90.75;94861.56;4991128;28;20047;-71
2024/01/18 02:22:29;;;;;;;0.40;0.40;;;;;;;0.17;90.64;94863.00;4988594;28;20388;-71
2024/01/18 02:25:03;;;;;;;1.05;1.05;;;;;;;0.16;90.79;94860.56;4999465;28;20034;-71
2024/01/18 02:27:32;;;;;;;0.40;0.40;;;;;;;0.10;91.50;94862.19;4996855;28;20390;-71
2024/01/18 02:30:00;;;;;;;1.05;1.05;;;;;;;0.10;91.07;94869.25;4994085;28;20038;-71
2024/01/18 02:32:28;;;;;;;0.82;0.82;;;;;;;0.06;91.05;94870.63;5000258;28;20070;-71
2024/01/18 02:34:55;;;;;;;0.20;0.20;;;;;;;0.07;90.95;94878.31;5003390;28;20527;-72
2024/01/18 02:37:23;;;;;;;1.15;1.15;;;;;;;0.11;90.60;94881.31;4991401;28;20521;-72
2024/01/18 02:39:52;;;;;;;1.10;1.10;;;;;;;0.04;90.45;94876.06;4991645;28;20042;-72
2024/01/18 02:42:19;;;;;;;1.27;1.27;;;;;;;-0.06;90.52;94886.09;4999578;28;20034;-72
2024/01/18 02:44:48;;;;;;;1.23;1.23;;;;;;;0.05;90.31;94893.41;4997162;28;20070;-72
2024/01/18 02:47:16;;;;;;;0.95;0.95;;;;;;;0.02;89.97;94890.38;4990426;28;20050;-72
2024/01/18 02:49:44;;;;;;;0.20;0.20;;;;;;;-0.11;90.35;94893.78;4990434;28;20405;-72
2024/01/18 02:52:11;;;;;;;1.20;1.20;;;;;;;0.02;90.16;94901.66;4991115;28;20081;-72
2024/01/18 02:54:39;;;;;;;0.50;0.50;;;;;;;-0.04;89.69;94900.66;4992220;28;20402;-73
2024/01/18 02:57:06;;;;;;;1.15;1.15;;;;;;;-0.03;90.00;94902.25;4985013;28;20070;-71
2024/01/18 02:59:34;;;;;;;0.80;0.80;;;;;;;-0.07;90.44;94910.69;4992632;28;20061;-71
2024/01/18 03:02:03;;;;;;;1.02;1.02;;;;;;;-0.03;90.55;94904.06;5001944;28;20493;-72
2024/01/18 03:04:31;;;;;;;0.20;0.20;;;;;;;-0.12;90.53;94907.88;4999611;28;20045;-71
2024/01/18 03:06:59;;;;;;;1.33;1.33;;;;;;;-0.09;91.04;94917.94;5007500;28;20136;-71
2024/01/18 03:09:26;;;;;;;0.75;0.75;;;;;;;-0.07;90.95;94905.47;5005359;28;20050;-71
2024/01/18 03:11:54;;;;;;;0.98;0.98;;;;;;;-0.05;91.58;94903.47;4993436;28;20047;-72
2024/01/18 03:14:22;;;;;;;1.13;1.13;;;;;;;0.01;91.66;94907.91;5001088;28;20060;-72
2024/01/18 03:16:50;;;;;;;1.02;1.02;;;;;;;0.06;90.77;94905.50;4983101;28;20060;-71
2024/01/18 03:19:19;;;;;;;1.02;1.02;;;;;;;0.06;90.25;94907.31;5000969;28;20049;-71
2024/01/18 03:21:47;;;;;;;0.85;0.85;;;;;;;0.09;89.71;94910.38;4996283;28;20494;-72
2024/01/18 03:24:14;;;;;;;0.43;0.43;;;;;;;0.05;89.61;94897.84;4993345;28;20429;-71
2024/01/18 03:26:42;;;;;;;1.05;1.05;;;;;;;0.00;89.67;94909.72;4990381;28;20051;-71
2024/01/18 03:29:09;;;;;;;1.40;1.40;;;;;;;0.02;90.08;94903.47;4988044;28;20042;-71
2024/01/18 03:31:37;;;;;;;0.40;0.40;;;;;;;-0.03;90.06;94910.13;4992224;28;20068;-71
2024/01/18 03:34:05;;;;;;;1.05;1.05;;;;;;;-0.07;89.78;94915.94;5000173;28;20050;-71
2024/01/18 03:36:34;;;;;;;0.98;0.98;;;;;;;-0.05;89.81;94921.81;4985527;28;20074;-71
2024/01/18 03:39:01;;;;;;;0.95;0.95;;;;;;;-0.04;90.13;94926.03;4985066;28;20083;-71
2024/01/18 03:41:29;;;;;;;1.25;1.25;;;;;;;-0.09;89.95;94920.56;4987909;28;20042;-71
2024/01/18 03:43:56;;;;;;;0.70;0.70;;;;;;;-0.19;90.43;94920.94;5001960;28;20042;-72
2024/01/18 03:46:24;;;;;;;1.05;1.05;;;;;;;-0.10;90.36;94918.94;4996564;28;20494;-72
2024/01/18 03:48:51;;;;;;;1.17;1.17;;;;;;;-0.10;90.40;94927.63;4991514;28;20046;-72
2024/01/18 03:51:19;;;;;;;1.25;1.25;;;;;;;-0.10;90.28;94932.84;4998972;28;20098;-72
2024/01/18 03:53:48;;;;;;;1.17;1.17;;;;;;;-0.06;90.17;94935.91;4991085;28;20038;-72
2024/01/18 03:56:15;;;;;;;1.85;1.85;;;;;;;-0.11;90.17;94931.28;4982256;28;20494;-71
2024/01/18 03:58:43;;;;;;;0.70;0.70;;;;;;;-0.06;90.20;94923.63;4988498;28;20134;-72
2024/01/18 04:01:11;;;;;;;0.73;0.73;;;;;;;-0.10;90.36;94930.25;4979692;28;20057;-71
2024/01/18 04:03:38;;;;;;;1.02;1.02;;;;;;;-0.05;90.52;94940.16;4987964;28;20121;-71
2024/01/18 04:06:06;;;;;;;0.82;0.82;;;;;;;-0.07;89.66;94950.00;4992345;28;20052;-73
2024/01/18 04:08:34;;;;;;;0.95;0.95;;;;;;;-0.06;89.74;94941.97;4989711;28;20113;-73
2024/01/18 04:11:03;;;;;;;1.02;1.02;;;;;;;-0.06;89.75;94951.63;4985396;28;20056;-72
2024/01/18 04:13:31;;;;;;;1.42;1.42;;;;;;;-0.17;89.38;94945.13;4996085;28;20042;-72
2024/01/18 04:15:58;;;;;;;1.38;1.38;;;;;;;-0.24;89.58;94943.50;4993327;28;20041;-71
2024/01/18 04:18:26;;;;;;;0.95;0.95;;;;;;;-0.18;89.38;94947.94;4987998;28;20043;-72
2024/01/18 04:20:53;;;;;;;1.17;1.17;;;;;;;-0.24;89.00;94948.72;4992637;28;20088;-72
2024/01/18 04:23:21;;;;;;;0.95;0.95;;;;;;;-0.22;89.38;94957.22;4985622;28;20490;-72
2024/01/18 04:25:51;;;;;;;0.85;0.85;;;;;;;-0.20;89.03;94970.91;4989625;28;20046;-72
2024/01/18 04:28:20;;;;;;;1.10;1.10;;;;;;;-0.20;89.06;94973.53;4982180;28;20062;-72
2024/01/18 04:30:48;;;;;;;1.30;1.30;;;;;;;-0.19;88.74;94970.72;5000287;28;20049;-72
2024/01/18 04:33:18;;;;;;;0.95;0.95;;;;;;;-0.24;88.79;94964.44;4986145;28;20051;-71
2024/01/18 04:35:46;;;;;;;1.20;1.20;;;;;;;-0.31;88.88;94963.63;4987516;28;20041;-71
2024/01/18 04:38:14;;;;;;;1.38;1.38;;;;;;;-0.31;89.17;94969.63;4983306;28;20046;-71
2024/01/18 04:40:43;;;;;;;1.15;1.15;;;;;;;-0.29;89.08;94979.94;4986752;28;20054;-72
2024/01/18 04:43:11;;;;;;;0.88;0.88;;;;;;;-0.27;88.99;94970.06;4978912;28;20050;-72
2024/01/18 04:45:40;;;;;;;0.98;0.98;;;;;;;-0.32;88.71;94969.84;4983390;28;20052;-73
2024/01/18 04:48:07;;;;;;;0.98;0.98;;;;;;;-0.31;88.79;94976.72;4986430;28;20061;-72
2024/01/18 04:50:35;;;;;;;0.47;0.47;;;;;;;-0.34;89.03;94970.03;4996696;28;20370;-72
2024/01/18 04:53:03;;;;;;;0.40;0.40;;;;;;;-0.31;89.00;94974.09;4990909;28;20402;-72
2024/01/18 04:55:31;;;;;;;0.70;0.70;;;;;;;-0.34;88.94;94971.84;4982816;28;20047;-72
2024/01/18 04:57:59;;;;;;;1.10;1.10;;;;;;;-0.33;89.10;94983.94;4984439;28;20129;-71
2024/01/18 05:00:26;;;;;;;0.30;0.30;;;;;;;-0.37;88.96;94992.19;4991292;28;20461;-71
2024/01/18 05:02:55;;;;;;;0.40;0.40;;;;;;;-0.36;88.25;94985.13;4996773;28;20387;-73
2024/01/18 05:05:23;;;;;;;0.40;0.40;;;;;;;-0.40;88.55;94976.03;4990260;28;20417;-73
2024/01/18 05:07:51;;;;;;;1.63;1.63;;;;;;;-0.41;88.58;94975.22;4996405;28;20038;-73
2024/01/18 05:10:19;;;;;;;1.05;1.05;;;;;;;-0.37;88.58;94970.41;4983720;28;20057;-72
2024/01/18 05:12:48;;;;;;;0.30;0.30;;;;;;;-0.38;88.49;94963.56;5002391;28;20402;-72
2024/01/18 05:15:16;;;;;;;1.20;1.20;;;;;;;-0.46;88.63;94964.53;4995152;28;20043;-73
2024/01/18 05:17:47;;;;;;;0.30;0.30;;;;;;;-0.45;89.16;94987.09;4996295;28;20390;-73
2024/01/18 05:20:16;;;;;;;1.15;1.15;;;;;;;-0.54;89.58;94995.28;4994627;28;20056;-72
2024/01/18 05:22:43;;;;;;;1.45;1.45;;;;;;;-0.52;89.67;94998.53;4975427;28;20042;-73
2024/01/18 05:25:11;;;;;;;0.30;0.30;;;;;;;-0.43;89.44;95000.81;4987797;28;20454;-73
2024/01/18 05:27:38;;;;;;;1.90;1.90;;;;;;;-0.37;89.00;95002.66;4992711;28;20508;-73
2024/01/18 05:30:08;;;;;;;1.02;1.02;;;;;;;-0.41;88.66;95006.66;4997918;28;20043;-73
2024/01/18 05:32:35;;;;;;;0.93;0.93;;;;;;;-0.49;88.68;95019.91;4999081;28;20043;-73
2024/01/18 05:35:04;;;;;;;0.93;0.93;;;;;;;-0.49;88.14;95040.84;5002995;28;20042;-75
2024/01/18 05:37:34;;;;;;;0.98;0.98;;;;;;;-0.54;88.42;95052.91;5002386;28;20129;-73
2024/01/18 05:40:02;;;;;;;0.85;0.85;;;;;;;-0.65;87.86;95059.47;4999502;28;20050;-73
2024/01/18 05:42:29;;;;;;;1.15;1.15;;;;;;;-0.70;87.58;95053.97;5000331;28;20474;-73
2024/01/18 05:44:58;;;;;;;1.15;1.15;;;;;;;-0.71;87.42;95034.03;5001144;28;20046;-71
2024/01/18 05:47:26;;;;;;;1.20;1.20;;;;;;;-0.73;87.78;95025.56;5000298;28;20055;-71
2024/01/18 05:49:54;;;;;;;0.95;0.95;;;;;;;-0.70;87.95;95035.66;4999573;28;20061;-72
2024/01/18 05:52:21;;;;;;;0.32;0.32;;;;;;;-0.68;87.59;95044.13;4992823;28;20417;-71
2024/01/18 05:54:51;;;;;;;0.85;0.85;;;;;;;-0.71;87.29;95044.50;4996739;28;20095;-71
2024/01/18 05:57:19;;;;;;;1.23;1.23;;;;;;;-0.77;87.48;95058.34;5009086;28;20596;-72
2024/01/18 05:59:47;;;;;;;0.98;0.98;;;;;;;-0.73;87.77;95051.75;5007367;28;20052;-71
2024/01/18 06:02:14;;;;;;;0.80;0.80;;;;;;;-0.80;86.74;95035.97;5004468;28;20164;-71
2024/01/18 06:04:42;;;;;;;0.95;0.95;;;;;;;-0.79;87.25;95045.44;5000087;28;20049;-72
2024/01/18 06:07:09;;;;;;;1.38;1.38;;;;;;;-0.84;86.79;95039.16;5005370;28;20143;-72
2024/01/18 06:09:37;;;;;;;1.00;1.00;;;;;;;-0.79;86.49;95037.59;4995520;28;20049;-72
2024/01/18 06:12:07;;;;;;;0.28;0.28;;;;;;;-0.85;86.42;95040.16;5001338;28;20420;-72
2024/01/18 06:14:35;;;;;;;0.38;0.38;;;;;;;-0.90;87.01;95039.91;5006090;28;20046;-72
2024/01/18 06:17:02;;;;;;;1.02;1.02;;;;;;;-0.90;87.53;95042.50;5006246;28;20049;-72
2024/01/18 06:19:30;;;;;;;1.13;1.13;;;;;;;-0.90;87.57;95034.66;5001400;28;20057;-72
2024/01/18 06:21:57;;;;;;;1.05;1.05;;;;;;;-0.87;86.89;95035.09;4997843;28;20058;-72
2024/01/18 06:24:25;;;;;;;0.93;0.93;;;;;;;-0.86;86.97;95054.25;4994570;28;20048;-72
2024/01/18 06:26:53;;;;;;;0.95;0.95;;;;;;;-0.87;87.14;95057.84;4994622;28;20050;-73
2024/01/18 06:29:26;;;;;;;0.35;0.35;;;;;;;-0.82;86.65;95060.72;4996252;28;20449;-72
2024/01/18 06:31:54;;;;;;;1.15;1.15;;;;;;;-0.91;86.82;95062.66;5002487;28;20065;-72
2024/01/18 06:34:21;;;;;;;0.90;0.90;;;;;;;-0.95;86.97;95058.00;4997737;28;20042;-72
2024/01/18 06:36:51;;;;;;;1.20;1.20;;;;;;;-0.95;87.33;95050.13;4997413;28;20092;-72
2024/01/18 06:39:18;;;;;;;0.95;0.95;;;;;;;-0.95;87.55;95042.28;5000345;28;20052;-71
2024/01/18 06:41:46;;;;;;;1.08;1.08;;;;;;;-0.97;86.96;95050.31;4996032;28;20042;-72
2024/01/18 06:44:14;;;;;;;1.05;1.05;;;;;;;-1.00;87.65;95045.44;4997709;28;20034;-72
2024/01/18 06:46:43;;;;;;;1.48;1.48;;;;;;;-1.11;87.11;95045.94;5002470;28;20498;-72
2024/01/18 06:49:11;;;;;;;0.80;0.80;;;;;;;-1.09;86.97;95041.34;5005962;28;20540;-72
2024/01/18 06:51:39;;;;;;;1.02;1.02;;;;;;;-1.14;86.20;95046.31;4995791;28;20535;-72
2024/01/18 06:54:07;;;;;;;1.23;1.23;;;;;;;-1.24;85.89;95061.50;4993010;28;20053;-72
2024/01/18 06:56:35;;;;;;;0.77;0.77;;;;;;;-1.22;85.76;95064.72;5003495;28;20097;-71
2024/01/18 06:59:03;;;;;;;0.63;0.63;;;;;;;-1.30;86.17;95057.00;5006654;28;20413;-71
2024/01/18 07:01:30;;;;;;;1.00;1.00;;;;;;;-1.31;86.29;95050.16;4997963;28;20046;-71
2024/01/18 07:03:59;;;;;;;0.20;0.20;;;;;;;-1.44;85.69;95045.56;4999244;28;20506;-73
2024/01/18 07:06:27;;;;;;;0.30;0.30;;;;;;;-1.46;86.52;95057.25;4994024;28;20399;-73
2024/01/18 07:08:55;;;;;;;1.20;1.20;;;;;;;-1.53;86.45;95067.59;4997044;28;20045;-73
2024/01/18 07:11:22;;;;;;;0.30;0.30;;;;;;;-1.56;86.82;95066.16;4999215;28;20089;-71
2024/01/18 07:13:50;;;;;;;1.05;1.05;;;;;;;-1.56;87.30;95066.16;4988897;28;20046;-71
2024/01/18 07:16:17;;;;;;;0.93;0.93;;;;;;;-1.53;86.72;95070.22;4995490;28;20054;-73
2024/01/18 07:18:45;;;;;;;1.10;1.10;;;;;;;-1.61;86.77;95065.91;4995759;28;20060;-73
2024/01/18 07:21:14;;;;;;;1.15;1.15;;;;;;;-1.48;86.72;95052.19;4995882;28;20077;-72
2024/01/18 07:23:41;;;;;;;0.20;0.20;;;;;;;-1.47;86.20;95053.81;4991112;28;20522;-73
2024/01/18 07:26:09;;;;;;;1.40;1.40;;;;;;;-1.54;86.26;95056.31;4999522;28;20062;-73
2024/01/18 07:28:36;;;;;;;0.95;0.95;;;;;;;-1.61;86.62;95065.91;5001347;28;20060;-73
2024/01/18 07:31:04;;;;;;;0.95;0.95;;;;;;;-1.70;86.83;95064.38;5001445;28;20046;-73
2024/01/18 07:33:32;;;;;;;0.50;0.50;;;;;;;-1.70;87.34;95071.41;4999173;28;20391;-73
2024/01/18 07:35:59;;;;;;;1.52;1.48;;;;;;;-1.63;87.13;95088.00;5004837;28;20046;-73
2024/01/18 07:38:28;;;;;;;0.85;0.85;;;;;;;-1.69;87.78;95093.97;5001146;28;20089;-73
2024/01/18 07:40:56;;;;;;;0.93;0.93;;;;;;;-1.69;87.85;95099.19;4999840;28;20042;-73
2024/01/18 07:43:23;;;;;;;1.27;1.27;;;;;;;-1.69;87.95;95101.78;5007761;28;20041;-72
2024/01/18 07:45:51;;;;;;;0.43;0.43;;;;;;;-1.64;87.33;95108.09;4994887;28;20409;-74
2024/01/18 07:48:19;;;;;;;1.38;1.38;;;;;;;-1.51;87.13;95113.50;4994040;28;20046;-73
2024/01/18 07:50:47;;;;;;;0.60;0.60;;;;;;;-1.49;87.28;95106.28;4991639;28;20523;-73
2024/01/18 07:53:14;;;;;;;0.43;0.43;;;;;;;-1.49;86.90;95093.22;4994416;28;20402;-71
2024/01/18 07:55:43;;;;;;;1.08;1.08;;;;;;;-1.50;86.74;95099.44;5000864;28;20053;-71
2024/01/18 07:58:11;;;;;;;0.50;0.50;;;;;;;-1.63;87.50;95106.28;5006080;28;20505;-71
2024/01/18 08:00:39;;;;;;;2.03;2.03;;;;;;;-1.70;88.06;95119.28;5006236;28;20129;-73
2024/01/18 08:03:06;;;;;;;1.75;1.75;;;;;;;-1.67;87.87;95115.50;4989283;28;20043;-71
2024/01/18 08:05:34;;;;;;;1.67;1.67;;;;;;;-1.61;88.14;95110.34;5002379;28;20042;-73
2024/01/18 08:08:01;;;;;;;1.05;1.05;;;;;;;-1.55;87.42;95124.50;4973241;28;20108;-71
2024/01/18 08:10:29;;;;;;;1.27;1.27;;;;;;;-1.59;87.91;95121.44;5000770;28;20054;-71
2024/01/18 08:12:59;;;;;;;0.40;0.40;;;;;;;-1.75;87.83;95121.63;5004017;28;20049;-71
2024/01/18 08:15:27;;;;;;;0.88;0.88;;;;;;;-1.64;88.16;95126.38;5001714;28;20536;-71
2024/01/18 08:17:55;;;;;;;1.17;1.17;;;;;;;-1.59;88.02;95123.25;4999285;28;20494;-71
2024/01/18 08:20:23;;;;;;;0.40;0.40;;;;;;;-1.57;87.79;95127.31;4997775;28;20478;-73
2024/01/18 08:22:51;;;;;;;1.27;1.27;;;;;;;-1.68;87.47;95134.78;5006523;28;20038;-71
2024/01/18 08:25:19;;;;;;;1.10;1.10;;;;;;;-1.59;87.48;95125.88;4989914;28;20055;-73
2024/01/18 08:27:46;;;;;;;0.38;0.38;;;;;;;-1.62;88.07;95123.59;4991765;28;20129;-73
2024/01/18 08:30:15;;;;;;;1.63;1.63;;;;;;;-1.54;87.38;95126.94;4993541;28;20049;-73
2024/01/18 08:32:43;;;;;;;1.27;1.27;;;;;;;-1.61;87.95;95122.63;5006659;28;20042;-73
2024/01/18 08:35:11;;;;;;;1.13;1.13;;;;;;;-1.54;87.50;95121.69;4995859;28;20085;-73
2024/01/18 08:37:38;;;;;;;0.30;0.30;;;;;;;-1.48;87.28;95131.44;4993093;28;20521;-73
2024/01/18 08:40:08;;;;;;;1.00;1.00;;;;;;;-1.52;87.04;95127.56;5000422;28;20050;-73
2024/01/18 08:42:37;;;;;;;1.02;1.02;;;;;;;-1.45;86.09;95127.63;4995980;28;20049;-73
2024/01/18 08:45:06;;;;;;;1.23;1.23;;;;;;;-1.41;86.62;95144.59;5002339;28;20049;-73
2024/01/18 08:47:35;;;;;;;0.20;0.20;;;;;;;-1.41;86.78;95143.78;4999675;28;20462;-71
2024/01/18 08:50:02;;;;;;;1.20;1.20;;;;;;;-1.40;87.02;95154.06;4998506;28;20127;-73
2024/01/18 08:52:29;;;;;;;1.15;1.15;;;;;;;-1.41;86.67;95156.88;4987649;28;20056;-73
2024/01/18 08:54:57;;;;;;;1.13;1.13;;;;;;;-1.52;86.89;95164.19;4995517;28;20498;-73
2024/01/18 08:57:25;;;;;;;0.40;0.40;;;;;;;-1.63;86.44;95175.06;4994171;28;20046;-73
2024/01/18 08:59:53;;;;;;;1.55;1.55;;;;;;;-1.69;86.50;95175.81;4999681;28;20104;-73
2024/01/18 09:02:20;;;;;;;0.90;0.90;;;;;;;-1.66;87.09;95187.72;4999883;28;20046;-73
2024/01/18 09:04:52;;;;;;;0.30;0.30;;;;;;;-1.59;87.17;95191.22;4993431;28;20512;-73
2024/01/18 09:07:19;;;;;;;0.82;0.82;;;;;;;-1.72;86.61;95191.03;5003082;28;20050;-73
2024/01/18 09:09:48;;;;;;;0.95;0.95;;;;;;;-1.65;86.42;95199.78;5000978;28;20639;-74
2024/01/18 09:12:16;;;;;;;0.95;0.95;;;;;;;-1.64;86.64;95196.16;4995794;28;20077;-74
2024/01/18 09:14:44;;;;;;;0.95;0.95;;;;;;;-1.62;85.92;95199.44;4995340;28;20045;-73
2024/01/18 09:17:12;;;;;;;1.35;1.35;;;;;;;-1.57;84.98;95210.97;4999815;28;20498;-73
2024/01/18 09:19:41;;;;;;;1.20;1.20;;;;;;;-1.66;85.08;95211.25;5002107;28;20060;-73
2024/01/18 09:22:10;;;;;;;1.48;1.48;;;;;;;-1.68;84.90;95221.06;4995459;28;20077;-73
2024/01/18 09:24:38;;;;;;;1.27;1.27;;;;;;;-1.76;85.20;95214.09;4988594;28;20118;-73
2024/01/18 09:27:05;;;;;;;0.30;0.30;;;;;;;-1.77;85.90;95219.53;5002062;28;20405;-73
2024/01/18 09:29:33;;;;;;;0.98;0.98;;;;;;;-1.72;86.40;95217.16;4994398;28;20054;-74
2024/01/18 09:32:01;;;;;;;1.08;1.08;;;;;;;-1.70;85.67;95228.28;4992209;28;20138;-73
2024/01/18 09:34:28;;;;;;;1.33;1.33;;;;;;;-1.74;85.75;95221.75;5000927;28;20042;-73
2024/01/18 09:36:58;;;;;;;1.10;1.10;;;;;;;-1.78;86.50;95236.19;4998289;28;20046;-73
2024/01/18 09:39:27;;;;;;;1.02;1.02;;;;;;;-1.71;85.83;95232.69;5000045;28;20060;-73
2024/01/18 09:41:55;;;;;;;1.20;1.20;;;;;;;-1.65;86.14;95241.59;4988614;28;20050;-73
2024/01/18 09:44:25;;;;;;;2.15;2.15;;;;;;;-1.71;85.29;95237.09;4993964;28;20054;-73
2024/01/18 09:46:54;;;;;;;1.42;1.42;;;;;;;-1.80;85.46;95233.75;4989337;28;20070;-73
2024/01/18 09:49:21;;;;;;;1.17;1.17;;;;;;;-1.85;85.55;95236.88;4994733;28;20043;-73
2024/01/18 09:51:50;;;;;;;1.20;1.20;;;;;;;-1.92;85.64;95237.78;4991742;28;20114;-73
2024/01/18 09:54:18;;;;;;;0.32;0.32;;;;;;;-1.82;86.01;95243.56;4998919;28;20363;-73
2024/01/18 09:56:49;;;;;;;0.30;0.30;;;;;;;-1.75;85.64;95246.28;4988536;28;20451;-73
2024/01/18 09:59:17;;;;;;;1.40;1.40;;;;;;;-1.66;85.90;95245.22;5002742;28;20065;-73
2024/01/18 10:01:45;;;;;;;1.70;1.70;;;;;;;-1.66;86.27;95250.47;5004848;28;20050;-73
2024/01/18 10:04:15;;;;;;;1.05;1.05;;;;;;;-1.59;85.37;95240.91;5006777;28;20498;-73
2024/01/18 10:06:43;;;;;;;1.48;1.48;;;;;;;-1.62;85.07;95239.47;5002480;28;20117;-73
2024/01/18 10:09:14;;;;;;;1.15;1.15;;;;;;;-1.65;84.79;95249.44;5006651;28;20142;-73
2024/01/18 10:11:44;;;;;;;0.90;0.90;;;;;;;-1.69;84.83;95251.63;5004034;28;20117;-73
2024/01/18 10:14:13;;;;;;;0.50;0.50;;;;;;;-1.63;84.74;95253.50;4999853;28;20041;-73
2024/01/18 10:16:41;;;;;;;0.38;0.38;;;;;;;-1.78;84.98;95249.25;5001117;28;20049;-73
2024/01/18 10:19:14;;;;;;;1.52;1.52;;;;;;;-1.79;83.80;95258.09;4999788;28;20046;-73
2024/01/18 10:21:43;;;;;;;0.32;0.32;;;;;;;-1.68;83.68;95248.03;5001303;28;20044;-73
2024/01/18 10:24:13;;;;;;;0.65;0.65;;;;;;;-1.70;83.02;95249.19;5000926;28;20405;-74
2024/01/18 10:26:41;;;;;;;0.20;0.20;;;;;;;-1.77;83.36;95248.28;4999504;28;20368;-74
2024/01/18 10:29:09;;;;;;;1.17;1.17;;;;;;;-1.87;83.67;95254.53;4995312;28;20053;-73
2024/01/18 10:31:41;;;;;;;0.93;0.93;;;;;;;-1.82;84.13;95251.41;4998980;28;20048;-73
2024/01/18 10:34:09;;;;;;;0.88;0.88;;;;;;;-1.84;83.38;95248.16;5010901;28;20100;-73
2024/01/18 10:36:38;;;;;;;1.17;1.17;;;;;;;-2.06;84.12;95255.03;4998805;28;20092;-73
2024/01/18 10:39:15;;;;;;;1.13;1.13;;;;;;;-1.86;84.35;95250.13;5002323;28;20072;-73
2024/01/18 10:41:44;;;;;;;1.05;1.05;;;;;;;-1.74;84.22;95253.13;4996079;28;20058;-73
2024/01/18 10:44:14;;;;;;;0.35;0.35;;;;;;;-1.61;83.89;95250.72;5001406;28;20452;-73
2024/01/18 10:46:43;;;;;;;1.25;1.25;;;;;;;-1.50;83.99;95252.91;4998625;28;20072;-73
2024/01/18 10:49:11;;;;;;;0.98;0.98;;;;;;;-1.41;83.43;95246.59;4997069;28;20038;-73
2024/01/18 10:51:40;;;;;;;1.00;1.00;;;;;;;-1.49;82.82;95241.47;4995734;28;20499;-73
2024/01/18 10:54:10;;;;;;;0.30;0.30;;;;;;;-1.41;83.29;95244.00;5001592;28;20406;-73
2024/01/18 10:56:52;;;;;;;0.40;0.40;;;;;;;-1.41;82.73;95254.44;4988479;28;20546;-74
2024/01/18 10:59:23;;;;;;;1.67;1.67;;;;;;;-1.36;83.25;95262.59;4995609;28;20533;-73
2024/01/18 11:01:53;;;;;;;1.80;1.80;;;;;;;-1.33;82.99;95259.59;4985030;28;20050;-73
2024/01/18 11:04:21;;;;;;;1.13;1.13;;;;;;;-1.40;82.69;95253.47;5005008;28;20057;-75
2024/01/18 11:06:49;;;;;;;0.98;0.98;;;;;;;-1.34;82.83;95257.16;4994609;28;20050;-73
2024/01/18 11:09:17;;;;;;;1.45;1.45;;;;;;;-1.44;82.71;95246.13;4990291;28;20070;-73
2024/01/18 11:11:45;;;;;;;1.08;1.08;;;;;;;-1.42;82.79;95258.06;4999403;28;20046;-74
2024/01/18 11:14:13;;;;;;;1.20;1.20;;;;;;;-1.45;82.46;95247.94;4998249;28;20049;-74
2024/01/18 11:16:41;;;;;;;1.35;1.35;;;;;;;-1.36;82.93;95252.13;5002977;28;20041;-71
2024/01/18 11:19:10;;;;;;;1.05;1.05;;;;;;;-1.32;83.33;95271.69;4998429;28;20041;-74
2024/01/18 11:21:38;;;;;;;0.70;0.70;;;;;;;-1.34;82.73;95265.81;5000594;28;20469;-74
2024/01/18 11:24:07;;;;;;;1.23;1.23;;;;;;;-1.37;83.08;95278.47;4994960;28;20050;-72
2024/01/18 11:26:35;;;;;;;1.08;1.08;;;;;;;-1.42;83.07;95291.25;4985535;28;20043;-72
2024/01/18 11:29:19;;;;;;;1.13;1.13;;;;;;;-1.44;83.03;95301.06;4993480;28;20049;-72
2024/01/18 11:31:49;;;;;;;0.20;0.20;;;;;;;-1.43;83.61;95297.47;4994636;28;20050;-71
2024/01/18 11:34:26;;;;;;;1.02;1.02;;;;;;;-1.48;84.33;95304.06;5001506;28;20045;-71
2024/01/18 11:37:09;;;;;;;1.30;1.30;;;;;;;-1.40;83.93;95291.88;4997766;28;20137;-72
2024/01/18 11:39:55;;;;;;;1.00;1.00;;;;;;;-1.52;83.86;95299.34;5003856;28;20104;-74
2024/01/18 11:42:24;;;;;;;0.90;0.90;;;;;;;-1.54;83.50;95304.75;4988907;28;20046;-71